Luminous Kobe-2 — JJ3868 — position and weather

sailwx.info

Track history (hours):
 
Tides and Currents Weather Stations Pressure Air Temp Water Temp Dewpoint Dewpoint Depression Visibility Wind Speed Wind Dir Waves Ship Positions

Luminous Kobe-2

Last reported at 2014-Sep-23 17:28 UTC. Time now 2014-Sep-23 18:30 UTC.
Position N 34°41' E 135°11'.

Length 105 m; draft 4.5 m.

Type: Passenger vessel. MMSI: 431000469.

Date/timePositionNaut miles runAvg speedWind from/ knotsBaromVisibWave heightAir tempDewpointWater temp
2014-Sep-23 17:28N 34°41' E 135°11'0 0.0
2014-Sep-23 16:28N 34°41' E 135°11'0 0.0
2014-Sep-23 15:28N 34°41' E 135°11'0 0.0
2014-Sep-23 14:22N 34°41' E 135°11'0 0.0
2014-Sep-23 13:28N 34°41' E 135°11'0 0.0
2014-Sep-23 12:22N 34°41' E 135°11'810.3
2014-Sep-23 11:33N 34°35' E 135°04'5 5.3
2014-Sep-23 10:33N 34°38' E 135°09'3 2.2
2014-Sep-23 09:05N 34°41' E 135°11'2 4.7
2014-Sep-23 08:33N 34°38' E 135°11'2 2.4
2014-Sep-23 07:33N 34°37' E 135°13'4 3.9
2014-Sep-23 06:29N 34°41' E 135°11'0 0.0
2014-Sep-23 05:23N 34°41' E 135°11'3 3.3
2014-Sep-23 04:34N 34°38' E 135°11'2 1.8
2014-Sep-23 03:33N 34°37' E 135°13'4 3.1
2014-Sep-23 02:17N 34°41' E 135°11'0 0.0
2014-Sep-23 01:29N 34°41' E 135°11'0 0.0
2014-Sep-23 00:23N 34°41' E 135°11'0 0.0
2014-Sep-22 23:29N 34°41' E 135°11'0 0.0
2014-Sep-22 22:29N 34°41' E 135°11'0 0.0
2014-Sep-22 21:23N 34°41' E 135°11'0 0.0
2014-Sep-22 20:29N 34°41' E 135°11'0 0.0
2014-Sep-22 19:29N 34°41' E 135°11'0 0.0
2014-Sep-22 18:29N 34°41' E 135°11'0 0.0
2014-Sep-22 17:29N 34°41' E 135°11'0 0.0
2014-Sep-22 16:29N 34°41' E 135°11'0 0.0
2014-Sep-22 15:17N 34°41' E 135°11'0 0.0
2014-Sep-22 14:23N 34°41' E 135°11'0 0.0
2014-Sep-22 13:29N 34°41' E 135°11'0 0.0
2014-Sep-22 12:29N 34°41' E 135°11'6 6.9
2014-Sep-22 11:34N 34°36' E 135°06'1 0.8
2014-Sep-22 10:33N 34°36' E 135°07'6 4.4
2014-Sep-22 09:17N 34°41' E 135°11'0 0.0
2014-Sep-22 08:29N 34°41' E 135°11'5 5.0
2014-Sep-22 07:33N 34°38' E 135°07'5 4.6
2014-Sep-22 06:33N 34°41' E 135°11'0 0.0
2014-Sep-22 05:33N 34°41' E 135°11'3 2.7
2014-Sep-22 04:33N 34°38' E 135°11'2 2.3
2014-Sep-22 03:33N 34°37' E 135°13'4 4.0
2014-Sep-22 02:33N 34°41' E 135°11'0 0.0
2014-Sep-22 01:27N 34°41' E 135°11'0 0.0
2014-Sep-22 00:33N 34°41' E 135°11'0 0.0
2014-Sep-21 23:33N 34°41' E 135°11'0 0.0
2014-Sep-21 22:33N 34°41' E 135°11'0 0.0
2014-Sep-21 21:21N 34°41' E 135°11'0 0.0
2014-Sep-21 20:33N 34°41' E 135°11'0 0.0
2014-Sep-21 19:27N 34°41' E 135°11'0 0.0
2014-Sep-21 18:33N 34°41' E 135°11'0 0.0
2014-Sep-21 17:33N 34°41' E 135°11'0 0.0
2014-Sep-21 16:33N 34°41' E 135°11'0 0.0
2014-Sep-21 15:27N 34°41' E 135°11'0 0.0
2014-Sep-21 14:33N 34°41' E 135°11'0 0.0
2014-Sep-21 13:33N 34°41' E 135°11'0 0.0
2014-Sep-21 12:27N 34°41' E 135°11'6 6.4
2014-Sep-21 11:33N 34°36' E 135°07'0 0.3
2014-Sep-21 10:33N 34°37' E 135°07'6 5.1
2014-Sep-21 09:27N 34°41' E 135°11'3 3.0
2014-Sep-21 08:33N 34°38' E 135°11'2 1.7
2014-Sep-21 07:32N 34°37' E 135°13'4 3.7
2014-Sep-21 06:30N 34°41' E 135°11'0 0.0
2014-Sep-21 05:30N 34°41' E 135°11'3 2.9
2014-Sep-21 04:33N 34°38' E 135°11'3 2.7
2014-Sep-21 03:33N 34°37' E 135°14'4 4.2
2014-Sep-21 02:31N 34°41' E 135°11'0 0.0
2014-Sep-21 01:31N 34°41' E 135°11'0 0.0
2014-Sep-21 00:31N 34°41' E 135°11'0 0.0
2014-Sep-20 23:31N 34°41' E 135°11'0 0.0
2014-Sep-20 22:31N 34°41' E 135°11'0 0.0
2014-Sep-20 21:31N 34°41' E 135°11'0 0.0
2014-Sep-20 20:25N 34°41' E 135°11'0 0.0
2014-Sep-20 19:31N 34°41' E 135°11'0 0.0
2014-Sep-20 18:31N 34°41' E 135°11'0 0.0
2014-Sep-20 17:31N 34°41' E 135°11'0 0.0
2014-Sep-20 16:31N 34°41' E 135°11'0 0.0
2014-Sep-20 15:31N 34°41' E 135°11'0 0.0
2014-Sep-20 14:31N 34°41' E 135°11'0 0.0
2014-Sep-20 13:25N 34°41' E 135°11'0 0.0
2014-Sep-20 12:31N 34°41' E 135°11'6 6.2
2014-Sep-20 11:33N 34°36' E 135°07'1 0.7
2014-Sep-20 10:33N 34°37' E 135°06'6 5.7
2014-Sep-20 09:33N 34°41' E 135°11'3 2.7
2014-Sep-20 08:33N 34°38' E 135°11'3 2.8
2014-Sep-20 07:33N 34°37' E 135°14'4 3.9
2014-Sep-20 06:31N 34°41' E 135°11'0 0.0
2014-Sep-20 05:25N 34°41' E 135°11'3 3.2
2014-Sep-20 04:34N 34°38' E 135°11'2 2.0
2014-Sep-20 03:34N 34°37' E 135°13'4 3.5
2014-Sep-20 02:29N 34°41' E 135°11'0 0.0
2014-Sep-20 01:29N 34°41' E 135°11'0 0.0
2014-Sep-20 00:29N 34°41' E 135°11'0 0.0
2014-Sep-19 23:29N 34°41' E 135°11'0 0.0
2014-Sep-19 22:29N 34°41' E 135°11'0 0.0
2014-Sep-19 21:29N 34°41' E 135°11'0 0.0
2014-Sep-19 20:17N 34°41' E 135°11'0 0.0
2014-Sep-19 19:29N 34°41' E 135°11'0 0.0
2014-Sep-19 18:29N 34°41' E 135°11'0 0.0
2014-Sep-19 17:11N 34°41' E 135°11'0 0.0
2014-Sep-19 16:29N 34°41' E 135°11'0 0.0
2014-Sep-19 15:23N 34°41' E 135°11'0 0.0
2014-Sep-19 14:17N 34°41' E 135°11'0 0.0
2014-Sep-19 13:23N 34°41' E 135°11'0 0.0
2014-Sep-19 12:29N 34°41' E 135°11'6 6.3
2014-Sep-19 11:33N 34°36' E 135°07'1 1.0
2014-Sep-19 10:33N 34°37' E 135°06'6 5.7
2014-Sep-19 09:32N 34°41' E 135°11'0 0.0
2014-Sep-19 08:32N 34°41' E 135°11'5 4.7
2014-Sep-19 07:33N 34°38' E 135°07'5 3.9
2014-Sep-19 06:22N 34°41' E 135°11'0 0.0
2014-Sep-19 05:28N 34°41' E 135°11'2 2.4
2014-Sep-19 04:33N 34°39' E 135°11'3 2.6
2014-Sep-19 03:33N 34°37' E 135°13'4 4.2
2014-Sep-19 02:34N 34°41' E 135°11'0 0.0
2014-Sep-19 01:29N 34°41' E 135°11'0 0.0
2014-Sep-19 00:29N 34°41' E 135°11'0 0.0
2014-Sep-18 23:29N 34°41' E 135°11'0 0.0
2014-Sep-18 22:29N 34°41' E 135°11'0 0.0
2014-Sep-18 21:23N 34°41' E 135°11'0 0.0
2014-Sep-18 20:29N 34°41' E 135°11'0 0.0
2014-Sep-18 19:29N 34°41' E 135°11'0 0.0
2014-Sep-18 18:29N 34°41' E 135°11'0 0.0
2014-Sep-18 17:29N 34°41' E 135°11'0 0.0
2014-Sep-18 16:29N 34°41' E 135°11'0 0.0
2014-Sep-18 15:29N 34°41' E 135°11'0 0.0
2014-Sep-18 14:23N 34°41' E 135°11'0 0.0
2014-Sep-18 13:29N 34°41' E 135°11'0 0.0
2014-Sep-18 12:29N 34°41' E 135°11'6 6.8
2014-Sep-18 11:33N 34°36' E 135°07'1 1.3
2014-Sep-18 10:33N 34°37' E 135°07'5 4.8
2014-Sep-18 09:28N 34°41' E 135°11'0 0.0
2014-Sep-18 08:33N 34°41' E 135°11'5 4.6
2014-Sep-18 07:33N 34°38' E 135°07'5 4.5
2014-Sep-18 06:33N 34°41' E 135°11'0 0.0
2014-Sep-18 05:33N 34°41' E 135°11'2 2.1
2014-Sep-18 04:33N 34°39' E 135°11'2 2.4
2014-Sep-18 03:33N 34°37' E 135°14'4 3.8
2014-Sep-18 02:32N 34°41' E 135°11'0 0.0
2014-Sep-18 01:26N 34°41' E 135°11'0 0.0
2014-Sep-18 00:32N 34°41' E 135°11'0 0.0
2014-Sep-17 23:26N 34°41' E 135°11'0 0.0
2014-Sep-17 22:32N 34°41' E 135°11'0 0.0
2014-Sep-17 21:32N 34°41' E 135°11'0 0.0
2014-Sep-17 20:32N 34°41' E 135°11'0 0.0
2014-Sep-17 19:32N 34°41' E 135°11'0 0.0
2014-Sep-17 18:32N 34°41' E 135°11'0 0.0
2014-Sep-17 17:20N 34°41' E 135°11'0 0.0
2014-Sep-17 16:14N 34°41' E 135°11'0 0.0
2014-Sep-17 15:32N 34°41' E 135°11'0 0.0
2014-Sep-17 14:32N 34°41' E 135°11'0 0.0
2014-Sep-17 13:32N 34°41' E 135°11'0 0.0
2014-Sep-17 12:32N 34°41' E 135°11'7 7.6
2014-Sep-17 11:33N 34°35' E 135°06'3 2.7
2014-Sep-17 10:33N 34°37' E 135°08'5 4.5
2014-Sep-17 09:31N 34°41' E 135°11'5 5.0
2014-Sep-17 08:33N 34°37' E 135°07'5 4.7
2014-Sep-17 07:32N 34°41' E 135°11'0 0.0
2014-Sep-17 06:32N 34°41' E 135°11'0 0.0
2014-Sep-17 05:32N 34°41' E 135°11'2 2.2
2014-Sep-17 04:33N 34°39' E 135°11'3 2.6
2014-Sep-17 03:33N 34°37' E 135°14'4 3.9
2014-Sep-17 02:29N 34°41' E 135°11'0 0.0
2014-Sep-17 01:29N 34°41' E 135°11'0 0.0
2014-Sep-17 00:23N 34°41' E 135°11'0 0.0
2014-Sep-16 23:29N 34°41' E 135°11'0 0.0
2014-Sep-16 22:29N 34°41' E 135°11'0 0.0
2014-Sep-16 21:29N 34°41' E 135°11'0 0.0
2014-Sep-16 20:29N 34°41' E 135°11'0 0.0
2014-Sep-16 19:29N 34°41' E 135°11'0 0.0
2014-Sep-16 18:29N 34°41' E 135°11'0 0.0
2014-Sep-16 17:29N 34°41' E 135°11'0 0.0
2014-Sep-16 16:29N 34°41' E 135°11'0 0.0
2014-Sep-16 15:27N 34°41' E 135°11'0 0.0
2014-Sep-16 14:29N 34°41' E 135°11'0 0.0
2014-Sep-16 13:23N 34°41' E 135°11'0 0.0
2014-Sep-16 12:29N 34°41' E 135°11'6 6.5
2014-Sep-16 11:33N 34°36' E 135°07'0 0.3
2014-Sep-16 10:33N 34°36' E 135°07'6 5.6
2014-Sep-16 09:31N 34°41' E 135°11'0 0.0
2014-Sep-16 08:31N 34°41' E 135°11'4 4.5
2014-Sep-16 07:33N 34°37' E 135°08'4 4.3
2014-Sep-16 06:32N 34°41' E 135°11'0 0.0
2014-Sep-16 05:32N 34°41' E 135°11'2 2.2
2014-Sep-16 04:33N 34°39' E 135°11'2 2.5
2014-Sep-16 03:33N 34°37' E 135°14'4 3.7
2014-Sep-16 02:28N 34°41' E 135°11'0 0.0
2014-Sep-16 01:28N 34°41' E 135°11'0 0.0
2014-Sep-16 00:28N 34°41' E 135°11'0 0.0
2014-Sep-15 23:22N 34°41' E 135°11'0 0.0
2014-Sep-15 22:28N 34°41' E 135°11'0 0.0
2014-Sep-15 21:22N 34°41' E 135°11'0 0.0
2014-Sep-15 20:13N 34°41' E 135°11'0 0.0
2014-Sep-15 19:25N 34°41' E 135°11'0 0.0
2014-Sep-15 18:31N 34°41' E 135°11'0 0.0
2014-Sep-15 17:25N 34°41' E 135°11'0 0.0
2014-Sep-15 16:31N 34°41' E 135°11'0 0.0
2014-Sep-15 15:31N 34°41' E 135°11'0 0.0
2014-Sep-15 14:31N 34°41' E 135°11'0 0.0
2014-Sep-15 13:31N 34°41' E 135°11'0 0.0
2014-Sep-15 12:31N 34°41' E 135°11'6 6.1
2014-Sep-15 11:34N 34°36' E 135°07'1 1.1
2014-Sep-15 10:33N 34°37' E 135°06'6 5.5
2014-Sep-15 09:30N 34°41' E 135°11'2 2.2
2014-Sep-15 08:33N 34°39' E 135°11'3 2.5
2014-Sep-15 07:33N 34°37' E 135°14'4 3.7
2014-Sep-15 06:28N 34°41' E 135°11'0 0.0
2014-Sep-15 05:28N 34°41' E 135°11'2 2.4
2014-Sep-15 04:33N 34°39' E 135°11'2 2.3
2014-Sep-15 03:33N 34°37' E 135°13'4 3.9
2014-Sep-15 02:33N 34°41' E 135°11'0 0.0
2014-Sep-15 01:33N 34°41' E 135°11'0 0.0
2014-Sep-15 00:27N 34°41' E 135°11'0 0.0
2014-Sep-14 23:33N 34°41' E 135°11'0 0.0
2014-Sep-14 22:33N 34°41' E 135°11'0 0.0
2014-Sep-14 21:33N 34°41' E 135°11'0 0.0
2014-Sep-14 20:33N 34°41' E 135°11'0 0.0
2014-Sep-14 19:33N 34°41' E 135°11'0 0.0
2014-Sep-14 18:33N 34°41' E 135°11'0 0.0
2014-Sep-14 17:33N 34°41' E 135°11'0 0.0
2014-Sep-14 16:33N 34°41' E 135°11'0 0.0
2014-Sep-14 15:33N 34°41' E 135°11'0 0.0
2014-Sep-14 14:33N 34°41' E 135°11'0 0.0
2014-Sep-14 13:33N 34°41' E 135°11'0 0.0
2014-Sep-14 12:33N 34°41' E 135°11'7 6.5
2014-Sep-14 11:34N 34°36' E 135°07'1 1.2
2014-Sep-14 10:33N 34°37' E 135°07'5 5.3
2014-Sep-14 09:33N 34°41' E 135°11'2 2.2
2014-Sep-14 08:33N 34°39' E 135°11'3 2.6
2014-Sep-14 07:34N 34°37' E 135°14'4 3.8
2014-Sep-14 06:30N 34°41' E 135°11'0 0.0
2014-Sep-14 05:30N 34°41' E 135°11'2 2.3
2014-Sep-14 04:33N 34°39' E 135°11'2 2.2
2014-Sep-14 03:33N 34°37' E 135°13'4 3.5
2014-Sep-14 02:31N 34°41' E 135°11'0 0.0
2014-Sep-14 01:31N 34°41' E 135°11'0 0.0
2014-Sep-13 21:31N 34°41' E 135°11'0 0.0
2014-Sep-13 20:31N 34°41' E 135°11'0 0.0
2014-Sep-13 19:25N 34°41' E 135°11'0 0.0
2014-Sep-13 18:25N 34°41' E 135°11'0 0.0
2014-Sep-13 17:31N 34°41' E 135°11'  
Track history (hours):
 
Tides and Currents Weather Stations Pressure Air Temp Water Temp Dewpoint Dewpoint Depression Visibility Wind Speed Wind Dir Waves Ship Positions

Luminous Kobe-2

Last reported at 2014-Sep-23 17:28 UTC. Time now 2014-Sep-23 18:30 UTC.
Position N 34°41' E 135°11'.

Length 105 m; draft 4.5 m.

Type: Passenger vessel. MMSI: 431000469.

Date/timePositionNaut miles runAvg speedWind from/ knotsBaromVisibWave heightAir tempDewpointWater temp
2014-Sep-23 17:28N 34°41' E 135°11'0 0.0
2014-Sep-23 16:28N 34°41' E 135°11'0 0.0
2014-Sep-23 15:28N 34°41' E 135°11'0 0.0
2014-Sep-23 14:22N 34°41' E 135°11'0 0.0
2014-Sep-23 13:28N 34°41' E 135°11'0 0.0
2014-Sep-23 12:22N 34°41' E 135°11'810.3
2014-Sep-23 11:33N 34°35' E 135°04'5 5.3
2014-Sep-23 10:33N 34°38' E 135°09'3 2.2
2014-Sep-23 09:05N 34°41' E 135°11'2 4.7
2014-Sep-23 08:33N 34°38' E 135°11'2 2.4
2014-Sep-23 07:33N 34°37' E 135°13'4 3.9
2014-Sep-23 06:29N 34°41' E 135°11'0 0.0
2014-Sep-23 05:23N 34°41' E 135°11'3 3.3
2014-Sep-23 04:34N 34°38' E 135°11'2 1.8
2014-Sep-23 03:33N 34°37' E 135°13'4 3.1
2014-Sep-23 02:17N 34°41' E 135°11'0 0.0
2014-Sep-23 01:29N 34°41' E 135°11'0 0.0
2014-Sep-23 00:23N 34°41' E 135°11'0 0.0
2014-Sep-22 23:29N 34°41' E 135°11'0 0.0
2014-Sep-22 22:29N 34°41' E 135°11'0 0.0
2014-Sep-22 21:23N 34°41' E 135°11'0 0.0
2014-Sep-22 20:29N 34°41' E 135°11'0 0.0
2014-Sep-22 19:29N 34°41' E 135°11'0 0.0
2014-Sep-22 18:29N 34°41' E 135°11'0 0.0
2014-Sep-22 17:29N 34°41' E 135°11'0 0.0
2014-Sep-22 16:29N 34°41' E 135°11'0 0.0
2014-Sep-22 15:17N 34°41' E 135°11'0 0.0
2014-Sep-22 14:23N 34°41' E 135°11'0 0.0
2014-Sep-22 13:29N 34°41' E 135°11'0 0.0
2014-Sep-22 12:29N 34°41' E 135°11'6 6.9
2014-Sep-22 11:34N 34°36' E 135°06'1 0.8
2014-Sep-22 10:33N 34°36' E 135°07'6 4.4
2014-Sep-22 09:17N 34°41' E 135°11'0 0.0
2014-Sep-22 08:29N 34°41' E 135°11'5 5.0
2014-Sep-22 07:33N 34°38' E 135°07'5 4.6
2014-Sep-22 06:33N 34°41' E 135°11'0 0.0
2014-Sep-22 05:33N 34°41' E 135°11'3 2.7
2014-Sep-22 04:33N 34°38' E 135°11'2 2.3
2014-Sep-22 03:33N 34°37' E 135°13'4 4.0
2014-Sep-22 02:33N 34°41' E 135°11'0 0.0
2014-Sep-22 01:27N 34°41' E 135°11'0 0.0
2014-Sep-22 00:33N 34°41' E 135°11'0 0.0
2014-Sep-21 23:33N 34°41' E 135°11'0 0.0
2014-Sep-21 22:33N 34°41' E 135°11'0 0.0
2014-Sep-21 21:21N 34°41' E 135°11'0 0.0
2014-Sep-21 20:33N 34°41' E 135°11'0 0.0
2014-Sep-21 19:27N 34°41' E 135°11'0 0.0
2014-Sep-21 18:33N 34°41' E 135°11'0 0.0
2014-Sep-21 17:33N 34°41' E 135°11'0 0.0
2014-Sep-21 16:33N 34°41' E 135°11'0 0.0
2014-Sep-21 15:27N 34°41' E 135°11'0 0.0
2014-Sep-21 14:33N 34°41' E 135°11'0 0.0
2014-Sep-21 13:33N 34°41' E 135°11'0 0.0
2014-Sep-21 12:27N 34°41' E 135°11'6 6.4
2014-Sep-21 11:33N 34°36' E 135°07'0 0.3
2014-Sep-21 10:33N 34°37' E 135°07'6 5.1
2014-Sep-21 09:27N 34°41' E 135°11'3 3.0
2014-Sep-21 08:33N 34°38' E 135°11'2 1.7
2014-Sep-21 07:32N 34°37' E 135°13'4 3.7
2014-Sep-21 06:30N 34°41' E 135°11'0 0.0
2014-Sep-21 05:30N 34°41' E 135°11'3 2.9
2014-Sep-21 04:33N 34°38' E 135°11'3 2.7
2014-Sep-21 03:33N 34°37' E 135°14'4 4.2
2014-Sep-21 02:31N 34°41' E 135°11'0 0.0
2014-Sep-21 01:31N 34°41' E 135°11'0 0.0
2014-Sep-21 00:31N 34°41' E 135°11'0 0.0
2014-Sep-20 23:31N 34°41' E 135°11'0 0.0
2014-Sep-20 22:31N 34°41' E 135°11'0 0.0
2014-Sep-20 21:31N 34°41' E 135°11'0 0.0
2014-Sep-20 20:25N 34°41' E 135°11'0 0.0
2014-Sep-20 19:31N 34°41' E 135°11'0 0.0
2014-Sep-20 18:31N 34°41' E 135°11'0 0.0
2014-Sep-20 17:31N 34°41' E 135°11'0 0.0
2014-Sep-20 16:31N 34°41' E 135°11'0 0.0
2014-Sep-20 15:31N 34°41' E 135°11'0 0.0
2014-Sep-20 14:31N 34°41' E 135°11'0 0.0
2014-Sep-20 13:25N 34°41' E 135°11'0 0.0
2014-Sep-20 12:31N 34°41' E 135°11'6 6.2
2014-Sep-20 11:33N 34°36' E 135°07'1 0.7
2014-Sep-20 10:33N 34°37' E 135°06'6 5.7
2014-Sep-20 09:33N 34°41' E 135°11'3 2.7
2014-Sep-20 08:33N 34°38' E 135°11'3 2.8
2014-Sep-20 07:33N 34°37' E 135°14'4 3.9
2014-Sep-20 06:31N 34°41' E 135°11'0 0.0
2014-Sep-20 05:25N 34°41' E 135°11'3 3.2
2014-Sep-20 04:34N 34°38' E 135°11'2 2.0
2014-Sep-20 03:34N 34°37' E 135°13'4 3.5
2014-Sep-20 02:29N 34°41' E 135°11'0 0.0
2014-Sep-20 01:29N 34°41' E 135°11'0 0.0
2014-Sep-20 00:29N 34°41' E 135°11'0 0.0
2014-Sep-19 23:29N 34°41' E 135°11'0 0.0
2014-Sep-19 22:29N 34°41' E 135°11'0 0.0
2014-Sep-19 21:29N 34°41' E 135°11'0 0.0
2014-Sep-19 20:17N 34°41' E 135°11'0 0.0
2014-Sep-19 19:29N 34°41' E 135°11'0 0.0
2014-Sep-19 18:29N 34°41' E 135°11'0 0.0
2014-Sep-19 17:11N 34°41' E 135°11'0 0.0
2014-Sep-19 16:29N 34°41' E 135°11'0 0.0
2014-Sep-19 15:23N 34°41' E 135°11'0 0.0
2014-Sep-19 14:17N 34°41' E 135°11'0 0.0
2014-Sep-19 13:23N 34°41' E 135°11'0 0.0
2014-Sep-19 12:29N 34°41' E 135°11'6 6.3
2014-Sep-19 11:33N 34°36' E 135°07'1 1.0
2014-Sep-19 10:33N 34°37' E 135°06'6 5.7
2014-Sep-19 09:32N 34°41' E 135°11'0 0.0
2014-Sep-19 08:32N 34°41' E 135°11'5 4.7
2014-Sep-19 07:33N 34°38' E 135°07'5 3.9
2014-Sep-19 06:22N 34°41' E 135°11'0 0.0
2014-Sep-19 05:28N 34°41' E 135°11'2 2.4
2014-Sep-19 04:33N 34°39' E 135°11'3 2.6
2014-Sep-19 03:33N 34°37' E 135°13'4 4.2
2014-Sep-19 02:34N 34°41' E 135°11'0 0.0
2014-Sep-19 01:29N 34°41' E 135°11'0 0.0
2014-Sep-19 00:29N 34°41' E 135°11'0 0.0
2014-Sep-18 23:29N 34°41' E 135°11'0 0.0
2014-Sep-18 22:29N 34°41' E 135°11'0 0.0
2014-Sep-18 21:23N 34°41' E 135°11'0 0.0
2014-Sep-18 20:29N 34°41' E 135°11'0 0.0
2014-Sep-18 19:29N 34°41' E 135°11'0 0.0
2014-Sep-18 18:29N 34°41' E 135°11'0 0.0
2014-Sep-18 17:29N 34°41' E 135°11'0 0.0
2014-Sep-18 16:29N 34°41' E 135°11'0 0.0
2014-Sep-18 15:29N 34°41' E 135°11'0 0.0
2014-Sep-18 14:23N 34°41' E 135°11'0 0.0
2014-Sep-18 13:29N 34°41' E 135°11'0 0.0
2014-Sep-18 12:29N 34°41' E 135°11'6 6.8
2014-Sep-18 11:33N 34°36' E 135°07'1 1.3
2014-Sep-18 10:33N 34°37' E 135°07'5 4.8
2014-Sep-18 09:28N 34°41' E 135°11'0 0.0
2014-Sep-18 08:33N 34°41' E 135°11'5 4.6
2014-Sep-18 07:33N 34°38' E 135°07'5 4.5
2014-Sep-18 06:33N 34°41' E 135°11'0 0.0
2014-Sep-18 05:33N 34°41' E 135°11'2 2.1
2014-Sep-18 04:33N 34°39' E 135°11'2 2.4
2014-Sep-18 03:33N 34°37' E 135°14'4 3.8
2014-Sep-18 02:32N 34°41' E 135°11'0 0.0
2014-Sep-18 01:26N 34°41' E 135°11'0 0.0
2014-Sep-18 00:32N 34°41' E 135°11'0 0.0
2014-Sep-17 23:26N 34°41' E 135°11'0 0.0
2014-Sep-17 22:32N 34°41' E 135°11'0 0.0
2014-Sep-17 21:32N 34°41' E 135°11'0 0.0
2014-Sep-17 20:32N 34°41' E 135°11'0 0.0
2014-Sep-17 19:32N 34°41' E 135°11'0 0.0
2014-Sep-17 18:32N 34°41' E 135°11'0 0.0
2014-Sep-17 17:20N 34°41' E 135°11'0 0.0
2014-Sep-17 16:14N 34°41' E 135°11'0 0.0
2014-Sep-17 15:32N 34°41' E 135°11'0 0.0
2014-Sep-17 14:32N 34°41' E 135°11'0 0.0
2014-Sep-17 13:32N 34°41' E 135°11'0 0.0
2014-Sep-17 12:32N 34°41' E 135°11'7 7.6
2014-Sep-17 11:33N 34°35' E 135°06'3 2.7
2014-Sep-17 10:33N 34°37' E 135°08'5 4.5
2014-Sep-17 09:31N 34°41' E 135°11'5 5.0
2014-Sep-17 08:33N 34°37' E 135°07'5 4.7
2014-Sep-17 07:32N 34°41' E 135°11'0 0.0
2014-Sep-17 06:32N 34°41' E 135°11'0 0.0
2014-Sep-17 05:32N 34°41' E 135°11'2 2.2
2014-Sep-17 04:33N 34°39' E 135°11'3 2.6
2014-Sep-17 03:33N 34°37' E 135°14'4 3.9
2014-Sep-17 02:29N 34°41' E 135°11'0 0.0
2014-Sep-17 01:29N 34°41' E 135°11'0 0.0
2014-Sep-17 00:23N 34°41' E 135°11'0 0.0
2014-Sep-16 23:29N 34°41' E 135°11'0 0.0
2014-Sep-16 22:29N 34°41' E 135°11'0 0.0
2014-Sep-16 21:29N 34°41' E 135°11'0 0.0
2014-Sep-16 20:29N 34°41' E 135°11'0 0.0
2014-Sep-16 19:29N 34°41' E 135°11'0 0.0
2014-Sep-16 18:29N 34°41' E 135°11'0 0.0
2014-Sep-16 17:29N 34°41' E 135°11'0 0.0
2014-Sep-16 16:29N 34°41' E 135°11'0 0.0
2014-Sep-16 15:27N 34°41' E 135°11'0 0.0
2014-Sep-16 14:29N 34°41' E 135°11'0 0.0
2014-Sep-16 13:23N 34°41' E 135°11'0 0.0
2014-Sep-16 12:29N 34°41' E 135°11'6 6.5
2014-Sep-16 11:33N 34°36' E 135°07'0 0.3
2014-Sep-16 10:33N 34°36' E 135°07'6 5.6
2014-Sep-16 09:31N 34°41' E 135°11'0 0.0
2014-Sep-16 08:31N 34°41' E 135°11'4 4.5
2014-Sep-16 07:33N 34°37' E 135°08'4 4.3
2014-Sep-16 06:32N 34°41' E 135°11'0 0.0
2014-Sep-16 05:32N 34°41' E 135°11'2 2.2
2014-Sep-16 04:33N 34°39' E 135°11'2 2.5
2014-Sep-16 03:33N 34°37' E 135°14'4 3.7
2014-Sep-16 02:28N 34°41' E 135°11'0 0.0
2014-Sep-16 01:28N 34°41' E 135°11'0 0.0
2014-Sep-16 00:28N 34°41' E 135°11'0 0.0
2014-Sep-15 23:22N 34°41' E 135°11'0 0.0
2014-Sep-15 22:28N 34°41' E 135°11'0 0.0
2014-Sep-15 21:22N 34°41' E 135°11'0 0.0
2014-Sep-15 20:13N 34°41' E 135°11'0 0.0
2014-Sep-15 19:25N 34°41' E 135°11'0 0.0
2014-Sep-15 18:31N 34°41' E 135°11'0 0.0
2014-Sep-15 17:25N 34°41' E 135°11'0 0.0
2014-Sep-15 16:31N 34°41' E 135°11'0 0.0
2014-Sep-15 15:31N 34°41' E 135°11'0 0.0
2014-Sep-15 14:31N 34°41' E 135°11'0 0.0
2014-Sep-15 13:31N 34°41' E 135°11'0 0.0
2014-Sep-15 12:31N 34°41' E 135°11'6 6.1
2014-Sep-15 11:34N 34°36' E 135°07'1 1.1
2014-Sep-15 10:33N 34°37' E 135°06'6 5.5
2014-Sep-15 09:30N 34°41' E 135°11'2 2.2
2014-Sep-15 08:33N 34°39' E 135°11'3 2.5
2014-Sep-15 07:33N 34°37' E 135°14'4 3.7
2014-Sep-15 06:28N 34°41' E 135°11'0 0.0
2014-Sep-15 05:28N 34°41' E 135°11'2 2.4
2014-Sep-15 04:33N 34°39' E 135°11'2 2.3
2014-Sep-15 03:33N 34°37' E 135°13'4 3.9
2014-Sep-15 02:33N 34°41' E 135°11'0 0.0
2014-Sep-15 01:33N 34°41' E 135°11'0 0.0
2014-Sep-15 00:27N 34°41' E 135°11'0 0.0
2014-Sep-14 23:33N 34°41' E 135°11'0 0.0
2014-Sep-14 22:33N 34°41' E 135°11'0 0.0
2014-Sep-14 21:33N 34°41' E 135°11'0 0.0
2014-Sep-14 20:33N 34°41' E 135°11'0 0.0
2014-Sep-14 19:33N 34°41' E 135°11'0 0.0
2014-Sep-14 18:33N 34°41' E 135°11'0 0.0
2014-Sep-14 17:33N 34°41' E 135°11'0 0.0
2014-Sep-14 16:33N 34°41' E 135°11'0 0.0
2014-Sep-14 15:33N 34°41' E 135°11'0 0.0
2014-Sep-14 14:33N 34°41' E 135°11'0 0.0
2014-Sep-14 13:33N 34°41' E 135°11'0 0.0
2014-Sep-14 12:33N 34°41' E 135°11'7 6.5
2014-Sep-14 11:34N 34°36' E 135°07'1 1.2
2014-Sep-14 10:33N 34°37' E 135°07'5 5.3
2014-Sep-14 09:33N 34°41' E 135°11'2 2.2
2014-Sep-14 08:33N 34°39' E 135°11'3 2.6
2014-Sep-14 07:34N 34°37' E 135°14'4 3.8
2014-Sep-14 06:30N 34°41' E 135°11'0 0.0
2014-Sep-14 05:30N 34°41' E 135°11'2 2.3
2014-Sep-14 04:33N 34°39' E 135°11'2 2.2
2014-Sep-14 03:33N 34°37' E 135°13'4 3.5
2014-Sep-14 02:31N 34°41' E 135°11'0 0.0
2014-Sep-14 01:31N 34°41' E 135°11'0 0.0
2014-Sep-13 21:31N 34°41' E 135°11'0 0.0
2014-Sep-13 20:31N 34°41' E 135°11'0 0.0
2014-Sep-13 19:25N 34°41' E 135°11'0 0.0
2014-Sep-13 18:25N 34°41' E 135°11'0 0.0
2014-Sep-13 17:31N 34°41' E 135°11'  

Dump ship's entire track history